Time;durP1;ratioP1;P1;durP2;ratioP2;P2;SDS_P1;SDS_P2;PMS_P1;PMS_P2;Temp;Humidity;BMP_temperature;BMP_pressure;BME280_temperature;BME280_humidity;BME280_pressure;Samples;Min_cycle;Max_cycle;Signal;HPM_P1;HPM_P2
2021/08/07 00:00:59;;;;;;;14.77;6.30;;;18.40;77.90;;;;;;4365413;32;20070;-72
2021/08/07 00:03:25;;;;;;;15.38;6.80;;;18.40;78.60;;;;;;4353106;32;20074;-72
2021/08/07 00:05:52;;;;;;;11.68;6.35;;;18.40;78.70;;;;;;4340493;32;20173;-71
2021/08/07 00:08:18;;;;;;;10.93;6.05;;;18.40;79.60;;;;;;4379111;32;20086;-71
2021/08/07 00:10:44;;;;;;;13.40;6.72;;;18.40;79.30;;;;;;4353080;32;20128;-71
2021/08/07 00:13:10;;;;;;;12.52;7.12;;;18.30;80.20;;;;;;4353340;32;20175;-72
2021/08/07 00:15:37;;;;;;;13.75;6.65;;;18.30;81.10;;;;;;4328508;32;20157;-71
2021/08/07 00:18:04;;;;;;;14.50;6.95;;;18.20;81.90;;;;;;4365185;32;20093;-71
2021/08/07 00:20:30;;;;;;;12.10;6.82;;;18.10;82.30;;;;;;4365376;32;20084;-71
2021/08/07 00:22:56;;;;;;;13.43;6.75;;;18.20;81.70;;;;;;4340604;32;20590;-72
2021/08/07 00:25:22;;;;;;;16.55;7.80;;;18.10;83.00;;;;;;4352751;32;20086;-71
2021/08/07 00:27:49;;;;;;;14.60;6.40;;;18.10;83.10;;;;;;4365653;32;20139;-71
2021/08/07 00:30:15;;;;;;;14.23;6.40;;;18.20;83.40;;;;;;4365159;32;20101;-71
2021/08/07 00:32:41;;;;;;;15.18;6.60;;;18.20;85.20;;;;;;4365155;32;20075;-71
2021/08/07 00:35:08;;;;;;;12.45;7.25;;;18.10;82.40;;;;;;4366824;32;20475;-71
2021/08/07 00:37:34;;;;;;;11.27;6.15;;;18.00;84.10;;;;;;4367128;32;20113;-70
2021/08/07 00:40:01;;;;;;;12.57;6.60;;;18.10;85.60;;;;;;4379926;32;20069;-70
2021/08/07 00:42:27;;;;;;;14.30;7.25;;;18.00;88.70;;;;;;4355019;32;20487;-71
2021/08/07 00:44:53;;;;;;;13.27;6.15;;;17.90;89.80;;;;;;4367527;32;20086;-71
2021/08/07 00:47:19;;;;;;;11.65;7.00;;;18.00;89.50;;;;;;4379637;32;20070;-72
2021/08/07 00:49:45;;;;;;;17.33;7.40;;;18.00;90.20;;;;;;4393667;32;20074;-70
2021/08/07 00:52:11;;;;;;;13.88;7.32;;;17.90;91.10;;;;;;4379578;32;20094;-71
2021/08/07 00:54:39;;;;;;;14.90;7.05;;;17.90;92.20;;;;;;4355014;32;20081;-71
2021/08/07 00:57:05;;;;;;;15.88;7.22;;;17.80;92.00;;;;;;4367184;32;20177;-71
2021/08/07 00:59:32;;;;;;;11.75;6.68;;;18.00;90.80;;;;;;4367253;32;20467;-72
2021/08/07 01:02:01;;;;;;;15.65;6.35;;;18.00;92.40;;;;;;4354850;32;20521;-72
2021/08/07 01:04:30;;;;;;;14.13;6.65;;;17.90;90.50;;;;;;4355217;32;20504;-71
2021/08/07 01:07:08;;;;;;;14.87;6.70;;;17.70;91.50;;;;;;4367324;32;20077;-71
2021/08/07 01:09:54;;;;;;;11.60;6.75;;;17.90;90.40;;;;;;4393241;32;20077;-70
2021/08/07 01:12:54;;;;;;;12.83;6.93;;;18.00;89.10;;;;;;4367352;32;20086;-71
2021/08/07 01:15:24;;;;;;;10.65;6.60;;;17.90;89.50;;;;;;4368896;32;20786;-71
2021/08/07 01:17:50;;;;;;;13.65;6.75;;;17.90;92.10;;;;;;4393624;32;20165;-70
2021/08/07 01:20:41;;;;;;;12.05;6.60;;;17.90;90.60;;;;;;4354649;32;20096;-71
2021/08/07 01:23:31;;;;;;;10.02;5.75;;;17.90;90.90;;;;;;4357227;32;20080;-71
2021/08/07 01:26:06;;;;;;;12.45;6.72;;;17.80;90.80;;;;;;4379195;32;20086;-72
2021/08/07 01:28:36;;;;;;;10.05;6.35;;;17.80;92.40;;;;;;4367602;32;20499;-71
2021/08/07 01:31:04;;;;;;;9.88;6.20;;;18.00;89.90;;;;;;4367242;32;20101;-71
2021/08/07 01:33:30;;;;;;;12.48;6.75;;;17.90;89.90;;;;;;4366832;32;20093;-71
2021/08/07 01:35:56;;;;;;;17.73;6.97;;;18.00;89.70;;;;;;4341636;32;20154;-71
2021/08/07 01:38:22;;;;;;;14.07;6.70;;;18.00;90.00;;;;;;4354519;32;20078;-71
2021/08/07 01:40:48;;;;;;;12.13;6.72;;;17.90;90.30;;;;;;4366557;32;20069;-71
2021/08/07 01:43:14;;;;;;;15.10;6.10;;;17.90;90.30;;;;;;4366359;32;20077;-71
2021/08/07 01:45:41;;;;;;;12.18;6.75;;;17.90;90.90;;;;;;4353973;32;20155;-72
2021/08/07 01:48:42;;;;;;;13.65;5.95;;;17.80;91.60;;;;;;4366260;32;20453;-72
2021/08/07 01:51:38;;;;;;;11.52;6.10;;;17.80;92.20;;;;;;4369363;32;20085;-71
2021/08/07 01:54:05;;;;;;;12.10;5.87;;;17.90;93.30;;;;;;4366609;32;20158;-72
2021/08/07 01:56:33;;;;;;;9.90;5.53;;;17.90;93.00;;;;;;4353597;32;20180;-71
2021/08/07 01:59:07;;;;;;;9.23;5.30;;;18.00;92.80;;;;;;4342211;32;20078;-71
2021/08/07 02:01:33;;;;;;;8.13;5.03;;;18.00;93.20;;;;;;4355762;32;20082;-71
2021/08/07 02:04:01;;;;;;;11.00;4.93;;;18.20;92.70;;;;;;4343798;32;20078;-72
2021/08/07 02:06:28;;;;;;;10.40;5.18;;;18.20;92.10;;;;;;4356512;32;20076;-70
2021/08/07 02:08:54;;;;;;;11.77;5.60;;;18.30;91.30;;;;;;4354982;32;20492;-70
2021/08/07 02:11:20;;;;;;;11.82;5.50;;;18.20;92.30;;;;;;4355699;32;20081;-71
2021/08/07 02:13:47;;;;;;;14.35;5.68;;;18.30;91.70;;;;;;4380083;32;20081;-71
2021/08/07 02:16:14;;;;;;;10.10;5.03;;;18.30;92.10;;;;;;4366576;32;20089;-71
2021/08/07 02:21:15;;;;;;;9.57;5.00;;;18.50;91.90;;;;;;3857488;37;20476;-71
2021/08/07 02:23:42;;;;;;;7.85;4.95;;;18.40;93.90;;;;;;4393914;32;20170;-71
2021/08/07 02:26:08;;;;;;;12.98;5.60;;;18.60;93.00;;;;;;4393375;32;20336;-72
2021/08/07 02:28:34;;;;;;;14.05;5.60;;;18.70;92.40;;;;;;4393332;32;20599;-71
2021/08/07 02:31:01;;;;;;;9.32;5.25;;;18.60;92.70;;;;;;4405553;32;20507;-72
2021/08/07 02:33:27;;;;;;;10.73;5.07;;;18.70;93.60;;;;;;4380789;32;20069;-72
2021/08/07 02:35:55;;;;;;;11.65;5.45;;;18.70;92.40;;;;;;4393141;32;20079;-73
2021/08/07 02:38:22;;;;;;;8.88;5.32;;;18.80;92.00;;;;;;4405525;32;20071;-72
2021/08/07 02:40:48;;;;;;;11.45;5.28;;;18.80;91.50;;;;;;4393357;32;20088;-72
2021/08/07 02:43:16;;;;;;;7.90;5.05;;;18.90;91.80;;;;;;4405839;32;20068;-72
2021/08/07 02:45:43;;;;;;;11.70;5.30;;;19.10;91.00;;;;;;4392861;32;20064;-72
2021/08/07 02:48:09;;;;;;;11.02;5.10;;;19.20;90.90;;;;;;4393447;32;20169;-70
2021/08/07 02:50:36;;;;;;;8.40;4.72;;;19.30;90.40;;;;;;4392647;32;20075;-71
2021/08/07 02:53:02;;;;;;;7.85;4.25;;;19.40;88.40;;;;;;4392763;32;20152;-71
2021/08/07 02:55:29;;;;;;;6.65;3.10;;;19.60;89.10;;;;;;4402855;32;20073;-72
2021/08/07 02:57:55;;;;;;;5.70;3.50;;;19.80;85.20;;;;;;4391152;32;20074;-72
2021/08/07 03:00:21;;;;;;;5.32;3.35;;;19.90;83.80;;;;;;4389809;32;20084;-71
2021/08/07 03:02:47;;;;;;;6.25;3.30;;;20.00;83.30;;;;;;4377411;32;20089;-72
2021/08/07 03:05:13;;;;;;;5.82;3.17;;;20.10;81.30;;;;;;4402519;32;20185;-71
2021/08/07 03:07:40;;;;;;;4.00;3.00;;;20.20;80.40;;;;;;4390012;32;20085;-72
2021/08/07 03:10:08;;;;;;;6.28;3.50;;;20.20;80.90;;;;;;4390252;32;20093;-71
2021/08/07 03:12:35;;;;;;;4.95;3.35;;;20.20;79.90;;;;;;4402525;32;20094;-70
2021/08/07 03:15:02;;;;;;;5.65;3.30;;;20.20;78.90;;;;;;4389922;32;20097;-71
2021/08/07 03:17:28;;;;;;;5.75;3.42;;;20.20;78.10;;;;;;4390135;32;20069;-72
2021/08/07 03:19:54;;;;;;;5.12;3.40;;;20.30;78.10;;;;;;4402237;32;20688;-71
2021/08/07 03:22:20;;;;;;;7.93;3.75;;;20.40;77.50;;;;;;4402240;32;20073;-71
2021/08/07 03:24:46;;;;;;;4.28;3.03;;;20.50;75.70;;;;;;4402468;32;20093;-72
2021/08/07 03:27:13;;;;;;;4.40;3.20;;;20.60;75.90;;;;;;4389821;32;20089;-72
2021/08/07 03:29:39;;;;;;;5.10;3.22;;;20.70;75.60;;;;;;4402322;32;20065;-71
2021/08/07 03:32:05;;;;;;;6.35;3.05;;;20.80;73.50;;;;;;4369371;32;20074;-72
2021/08/07 03:34:31;;;;;;;6.40;3.40;;;20.90;72.50;;;;;;4379469;32;20500;-71
2021/08/07 03:36:57;;;;;;;5.12;3.17;;;20.90;71.60;;;;;;4379237;32;20069;-71
2021/08/07 03:39:24;;;;;;;4.70;2.75;;;21.00;69.10;;;;;;4379500;32;20082;-71
2021/08/07 03:41:52;;;;;;;5.25;3.08;;;21.10;69.10;;;;;;4379972;32;20084;-72
2021/08/07 03:44:18;;;;;;;4.03;3.05;;;21.20;68.20;;;;;;4368041;32;20096;-71
2021/08/07 03:46:44;;;;;;;10.05;3.08;;;21.30;67.90;;;;;;4393406;32;20084;-71
2021/08/07 03:49:10;;;;;;;4.60;2.75;;;21.30;66.70;;;;;;4379132;32;20069;-71
2021/08/07 03:51:37;;;;;;;4.97;3.17;;;21.40;66.70;;;;;;4392221;32;20623;-71
2021/08/07 03:54:03;;;;;;;5.32;3.25;;;21.50;66.40;;;;;;4392257;32;20066;-71
2021/08/07 03:56:29;;;;;;;4.47;3.00;;;21.50;65.10;;;;;;4392118;32;20089;-72
2021/08/07 03:58:55;;;;;;;3.83;3.00;;;21.60;64.80;;;;;;4366789;32;20077;-72
2021/08/07 04:01:21;;;;;;;6.20;2.80;;;21.80;64.10;;;;;;4391689;32;20518;-72
2021/08/07 04:03:47;;;;;;;6.25;2.70;;;21.80;63.20;;;;;;4379544;32;20074;-72
2021/08/07 04:06:14;;;;;;;4.40;2.78;;;21.90;61.60;;;;;;4379028;32;20093;-72
2021/08/07 04:08:40;;;;;;;3.85;2.75;;;22.00;61.50;;;;;;4392337;32;20524;-71
2021/08/07 04:11:06;;;;;;;3.45;2.80;;;22.10;60.60;;;;;;4391705;32;20093;-72
2021/08/07 04:13:32;;;;;;;3.33;2.62;;;22.10;60.00;;;;;;4366634;32;20085;-71
2021/08/07 04:15:58;;;;;;;2.97;2.42;;;22.20;58.50;;;;;;4391443;32;20165;-71
2021/08/07 04:18:25;;;;;;;3.85;2.60;;;22.30;58.40;;;;;;4354236;32;20102;-72
2021/08/07 04:20:52;;;;;;;6.60;2.90;;;22.40;57.90;;;;;;4391142;32;20643;-72
2021/08/07 04:23:19;;;;;;;5.25;2.90;;;22.40;57.70;;;;;;4366772;32;20088;-72
2021/08/07 04:25:45;;;;;;;3.70;2.80;;;22.50;57.50;;;;;;4391405;32;20072;-72
2021/08/07 04:28:11;;;;;;;3.70;2.78;;;22.50;57.30;;;;;;4391115;32;20062;-71
2021/08/07 04:30:37;;;;;;;3.30;2.70;;;22.60;56.60;;;;;;4378602;32;20542;-72
2021/08/07 04:33:03;;;;;;;5.80;2.80;;;22.70;56.50;;;;;;4378592;32;20440;-72
2021/08/07 04:35:29;;;;;;;3.75;2.50;;;22.70;55.60;;;;;;4366395;32;20089;-71
2021/08/07 04:37:58;;;;;;;2.78;2.45;;;22.80;55.80;;;;;;4366260;32;20178;-71
2021/08/07 04:40:26;;;;;;;4.93;2.90;;;23.00;55.40;;;;;;4378683;32;20077;-71
2021/08/07 04:42:52;;;;;;;3.42;2.42;;;23.00;55.10;;;;;;4390119;32;20543;-71
2021/08/07 04:45:18;;;;;;;5.30;2.90;;;23.10;55.00;;;;;;4378826;32;20175;-71
2021/08/07 04:48:00;;;;;;;4.78;2.95;;;25.50;47.80;;;;;;4378704;32;20062;-70
2021/08/07 04:50:30;;;;;;;3.65;2.37;;;27.80;39.00;;;;;;4378333;32;20155;-71
2021/08/07 04:52:56;;;;;;;7.55;2.97;;;28.70;35.40;;;;;;4378696;32;20073;-70
2021/08/07 04:55:23;;;;;;;4.20;2.90;;;27.40;37.40;;;;;;4365908;32;20163;-71
2021/08/07 04:57:49;;;;;;;4.75;2.87;;;28.00;36.30;;;;;;4366477;32;20082;-72
2021/08/07 05:00:17;;;;;;;5.72;2.67;;;27.90;35.90;;;;;;4390788;32;20523;-72
2021/08/07 05:02:45;;;;;;;7.70;2.90;;;28.30;36.40;;;;;;4366407;32;20084;-71
2021/08/07 05:05:12;;;;;;;3.58;2.33;;;28.60;35.10;;;;;;4390503;32;20069;-71
2021/08/07 05:07:38;;;;;;;3.70;2.70;;;28.20;34.40;;;;;;4365922;32;20133;-72
2021/08/07 05:10:05;;;;;;;4.78;2.70;;;28.10;35.60;;;;;;4390686;32;20100;-72
2021/08/07 05:12:32;;;;;;;4.75;2.72;;;28.30;34.50;;;;;;4365922;32;20185;-72
2021/08/07 05:14:58;;;;;;;6.40;2.97;;;29.00;34.10;;;;;;4378289;32;20625;-71
2021/08/07 05:17:25;;;;;;;3.72;2.83;;;28.80;34.70;;;;;;4378472;32;20080;-71
2021/08/07 05:19:51;;;;;;;8.13;2.80;;;29.10;33.70;;;;;;4378332;32;20082;-72
2021/08/07 05:22:18;;;;;;;3.17;2.67;;;28.90;34.00;;;;;;4378474;32;20089;-71
2021/08/07 05:24:44;;;;;;;3.90;3.15;;;29.30;33.30;;;;;;4365422;32;20073;-71
2021/08/07 05:27:10;;;;;;;3.28;2.33;;;29.20;32.30;;;;;;4377989;32;20085;-72
2021/08/07 05:29:37;;;;;;;4.28;2.47;;;29.50;31.70;;;;;;4390871;32;20074;-72
2021/08/07 05:32:03;;;;;;;3.60;2.78;;;29.20;32.00;;;;;;4390608;32;20157;-71
2021/08/07 05:34:29;;;;;;;2.92;2.22;;;29.30;31.90;;;;;;4377507;32;20503;-72
2021/08/07 05:36:55;;;;;;;3.80;2.47;;;29.40;31.70;;;;;;4378463;32;20093;-72
2021/08/07 05:39:22;;;;;;;3.65;2.33;;;29.80;30.80;;;;;;4377896;32;20143;-71
2021/08/07 05:41:48;;;;;;;3.12;2.33;;;30.30;29.70;;;;;;4365250;32;20077;-71
2021/08/07 05:44:14;;;;;;;3.30;2.45;;;30.10;29.70;;;;;;4390564;32;20161;-71
2021/08/07 05:46:40;;;;;;;3.03;2.28;;;29.70;30.90;;;;;;4377813;32;20093;-71
2021/08/07 05:49:06;;;;;;;3.25;2.42;;;29.80;30.00;;;;;;4377562;32;20479;-72
2021/08/07 05:51:34;;;;;;;3.87;2.65;;;29.30;30.20;;;;;;4378231;32;20437;-71
2021/08/07 05:54:02;;;;;;;3.35;2.28;;;30.60;28.50;;;;;;4377709;32;20078;-71
2021/08/07 05:56:28;;;;;;;3.03;2.30;;;30.80;28.00;;;;;;4377797;32;20089;-71
2021/08/07 05:58:54;;;;;;;3.53;2.45;;;29.00;28.70;;;;;;4377565;32;20088;-71
2021/08/07 06:01:20;;;;;;;3.40;2.58;;;29.10;28.50;;;;;;4389751;32;20074;-72
2021/08/07 06:03:47;;;;;;;4.10;2.50;;;30.10;27.90;;;;;;4390428;32;20074;-72
2021/08/07 06:06:13;;;;;;;3.17;2.50;;;30.60;27.30;;;;;;4378230;32;20070;-72
2021/08/07 06:08:39;;;;;;;3.40;2.72;;;30.50;26.50;;;;;;4377578;32;20505;-71
2021/08/07 06:11:05;;;;;;;3.53;2.45;;;28.40;28.70;;;;;;4377309;32;20101;-71
2021/08/07 06:13:31;;;;;;;2.92;2.40;;;29.00;28.20;;;;;;4377537;32;20081;-71
2021/08/07 06:15:57;;;;;;;4.97;2.85;;;30.80;26.40;;;;;;4390238;32;20078;-71
2021/08/07 06:18:24;;;;;;;3.22;2.42;;;29.30;27.40;;;;;;4377371;32;20082;-71
2021/08/07 06:20:50;;;;;;;3.47;2.67;;;29.50;27.70;;;;;;4389524;32;20058;-71
2021/08/07 06:23:17;;;;;;;3.50;2.33;;;30.80;26.20;;;;;;4377149;32;20085;-72
2021/08/07 06:25:43;;;;;;;2.75;2.05;;;31.00;24.80;;;;;;4364732;32;20106;-71
2021/08/07 06:28:09;;;;;;;2.83;2.33;;;30.50;24.40;;;;;;4377579;32;20074;-71
2021/08/07 06:30:37;;;;;;;3.12;2.65;;;28.30;29.00;;;;;;4377510;32;20475;-71
2021/08/07 06:33:04;;;;;;;5.62;2.87;;;28.00;31.30;;;;;;4390011;32;20070;-71
2021/08/07 06:35:30;;;;;;;3.12;2.55;;;28.00;29.80;;;;;;4377405;32;20214;-71
2021/08/07 06:37:57;;;;;;;3.60;2.58;;;27.40;31.20;;;;;;4391219;32;20070;-71
2021/08/07 06:40:23;;;;;;;3.10;2.60;;;27.90;30.20;;;;;;4391239;32;20077;-71
2021/08/07 06:42:49;;;;;;;2.92;2.30;;;28.00;30.30;;;;;;4377324;32;20077;-71
2021/08/07 06:45:15;;;;;;;3.28;2.45;;;27.10;30.90;;;;;;4390106;32;20074;-70
2021/08/07 06:47:42;;;;;;;3.65;2.62;;;27.30;31.70;;;;;;4377266;32;20070;-71
2021/08/07 06:50:09;;;;;;;5.85;2.95;;;27.90;31.60;;;;;;4389483;32;20081;-71
2021/08/07 06:52:35;;;;;;;3.72;2.50;;;28.20;30.20;;;;;;4365203;32;20156;-70
2021/08/07 06:55:02;;;;;;;3.42;2.80;;;28.30;31.00;;;;;;4365050;32;20085;-72
2021/08/07 06:57:28;;;;;;;3.47;2.50;;;27.40;30.90;;;;;;4390458;32;20246;-71
2021/08/07 06:59:54;;;;;;;3.62;2.75;;;27.30;32.00;;;;;;4377220;32;20083;-72
2021/08/07 07:02:20;;;;;;;3.12;2.65;;;27.60;32.00;;;;;;4389921;32;20090;-71
2021/08/07 07:04:47;;;;;;;3.53;2.80;;;28.10;31.70;;;;;;4364605;32;20089;-72
2021/08/07 07:07:13;;;;;;;3.40;2.70;;;28.60;30.60;;;;;;4378779;32;20066;-71
2021/08/07 07:09:39;;;;;;;3.92;3.05;;;28.40;30.40;;;;;;4379812;32;20491;-71
2021/08/07 07:12:06;;;;;;;5.68;2.95;;;28.50;30.30;;;;;;4355494;32;20157;-72
2021/08/07 07:14:32;;;;;;;3.42;2.47;;;27.90;30.10;;;;;;4393543;32;20066;-71
2021/08/07 07:16:58;;;;;;;3.28;2.47;;;28.00;30.90;;;;;;4379769;32;20174;-72
2021/08/07 07:19:25;;;;;;;3.67;2.60;;;27.40;31.80;;;;;;4379836;32;20073;-71
2021/08/07 07:21:52;;;;;;;2.90;2.28;;;27.40;32.30;;;;;;4379815;32;20081;-72
2021/08/07 07:24:18;;;;;;;2.40;2.20;;;27.50;32.00;;;;;;4392143;32;20527;-71
2021/08/07 07:26:44;;;;;;;3.45;2.65;;;28.00;31.20;;;;;;4379889;32;20067;-70
2021/08/07 07:29:10;;;;;;;3.45;2.50;;;28.00;31.00;;;;;;4392796;32;20078;-71
2021/08/07 07:31:36;;;;;;;4.55;2.95;;;28.30;30.60;;;;;;4380210;32;20085;-71
2021/08/07 07:34:02;;;;;;;3.08;2.60;;;28.60;30.00;;;;;;4380196;32;20456;-71
2021/08/07 07:36:29;;;;;;;3.37;2.55;;;27.90;31.10;;;;;;4392117;32;20509;-71
2021/08/07 07:38:55;;;;;;;3.28;2.55;;;28.50;30.00;;;;;;4392249;32;20073;-72
2021/08/07 07:41:21;;;;;;;3.75;2.40;;;28.90;29.40;;;;;;4392315;32;20070;-70
2021/08/07 07:43:47;;;;;;;3.10;2.55;;;27.60;31.60;;;;;;4367385;32;20070;-71
2021/08/07 07:46:13;;;;;;;2.60;2.28;;;28.10;31.10;;;;;;4392399;32;20070;-70
2021/08/07 07:48:41;;;;;;;3.53;2.03;;;28.30;30.60;;;;;;4392149;32;20077;-72
2021/08/07 07:51:07;;;;;;;3.60;2.67;;;28.40;29.60;;;;;;4379370;32;20066;-71
2021/08/07 07:53:33;;;;;;;3.42;2.80;;;27.70;30.20;;;;;;4379631;32;20102;-72
2021/08/07 07:55:59;;;;;;;4.45;2.67;;;28.20;29.90;;;;;;4392005;32;20082;-72
2021/08/07 07:58:25;;;;;;;5.30;2.45;;;28.50;29.40;;;;;;4391885;32;20441;-72
2021/08/07 08:00:52;;;;;;;3.12;2.70;;;28.20;29.60;;;;;;4364632;32;20141;-72
2021/08/07 08:03:19;;;;;;;4.18;2.87;;;27.70;30.10;;;;;;4381127;32;20460;-70
2021/08/07 08:05:45;;;;;;;2.47;2.28;;;28.10;30.30;;;;;;4351866;32;20074;-71
2021/08/07 08:08:11;;;;;;;3.05;2.55;;;29.20;29.50;;;;;;4364405;32;20112;-71
2021/08/07 08:10:38;;;;;;;6.80;2.45;;;28.50;29.60;;;;;;4376165;32;20082;-71
2021/08/07 08:13:05;;;;;;;2.95;2.40;;;28.50;30.10;;;;;;4351685;32;20243;-69
2021/08/07 08:15:32;;;;;;;3.05;2.40;;;28.20;30.80;;;;;;4351812;32;20505;-71
2021/08/07 08:17:58;;;;;;;2.60;2.40;;;28.60;28.90;;;;;;4363868;32;20109;-72
2021/08/07 08:20:25;;;;;;;2.50;2.30;;;28.50;29.30;;;;;;4351132;32;20101;-71
2021/08/07 08:22:51;;;;;;;4.75;2.33;;;29.00;29.50;;;;;;4364106;32;20520;-72
2021/08/07 08:25:17;;;;;;;4.00;2.47;;;29.20;28.60;;;;;;4376417;32;20182;-71
2021/08/07 08:27:44;;;;;;;3.03;2.60;;;29.20;28.20;;;;;;4351481;32;20094;-71
2021/08/07 08:30:10;;;;;;;3.67;2.60;;;29.20;28.90;;;;;;4364429;32;20089;-71
2021/08/07 08:32:36;;;;;;;3.60;2.42;;;28.90;29.00;;;;;;4376002;32;20109;-70
2021/08/07 08:35:04;;;;;;;3.80;2.50;;;28.30;29.70;;;;;;4351596;32;20098;-70
2021/08/07 08:37:31;;;;;;;2.53;2.33;;;28.70;29.90;;;;;;4351976;32;20090;-69
2021/08/07 08:39:58;;;;;;;4.55;2.70;;;29.10;29.30;;;;;;4377507;32;20530;-70
2021/08/07 08:42:24;;;;;;;3.22;2.40;;;28.90;28.70;;;;;;4375993;32;20531;-70
2021/08/07 08:44:50;;;;;;;2.85;2.28;;;29.30;28.90;;;;;;4363550;32;20098;-69
2021/08/07 08:47:21;;;;;;;2.30;2.10;;;29.00;28.40;;;;;;4351390;32;20160;-71
2021/08/07 08:49:47;;;;;;;3.83;2.80;;;29.20;28.30;;;;;;4351635;32;20166;-71
2021/08/07 08:52:15;;;;;;;2.95;2.30;;;29.50;27.50;;;;;;4338882;32;20116;-70
2021/08/07 08:54:42;;;;;;;3.95;2.47;;;29.10;28.70;;;;;;4363860;32;20086;-70
2021/08/07 08:57:08;;;;;;;2.28;1.95;;;29.40;28.00;;;;;;4351146;32;20066;-71
2021/08/07 08:59:34;;;;;;;2.97;2.40;;;29.60;28.20;;;;;;4350856;32;20073;-71
2021/08/07 09:02:01;;;;;;;3.03;2.53;;;29.80;27.20;;;;;;4376991;32;20058;-71
2021/08/07 09:04:27;;;;;;;5.12;2.37;;;29.80;27.00;;;;;;4363940;32;20098;-71
2021/08/07 09:06:53;;;;;;;2.75;2.28;;;29.70;27.30;;;;;;4376169;32;20449;-72
2021/08/07 09:09:44;;;;;;;4.30;2.35;;;29.90;27.50;;;;;;4377111;32;20081;-71
2021/08/07 09:12:11;;;;;;;2.75;2.28;;;29.90;27.80;;;;;;4342232;32;20065;-71
2021/08/07 09:14:40;;;;;;;3.67;2.65;;;29.60;27.70;;;;;;4364008;32;20161;-71
2021/08/07 09:17:19;;;;;;;3.87;2.62;;;29.70;27.00;;;;;;4351398;32;20074;-71
2021/08/07 09:19:51;;;;;;;2.72;2.20;;;30.30;26.30;;;;;;4350847;32;20160;-70
2021/08/07 09:22:29;;;;;;;2.60;2.40;;;29.90;26.50;;;;;;4351522;32;20181;-70
2021/08/07 09:25:08;;;;;;;3.03;2.40;;;30.30;25.80;;;;;;4351208;32;20105;-71
2021/08/07 09:27:38;;;;;;;4.25;2.37;;;30.20;26.20;;;;;;4365582;32;20078;-70
2021/08/07 09:30:29;;;;;;;3.97;2.60;;;30.30;25.70;;;;;;4378767;32;20109;-70
2021/08/07 09:32:59;;;;;;;5.80;2.50;;;30.20;25.70;;;;;;4353763;32;20074;-71
2021/08/07 09:35:45;;;;;;;4.18;2.53;;;30.10;26.60;;;;;;4366156;32;20105;-69
2021/08/07 09:38:30;;;;;;;4.25;2.15;;;29.20;26.70;;;;;;4364665;32;20072;-71
2021/08/07 09:40:58;;;;;;;3.03;2.42;;;29.70;26.20;;;;;;4352428;32;20100;-72
2021/08/07 09:43:49;;;;;;;3.30;2.50;;;29.40;26.70;;;;;;4350858;32;20070;-71
2021/08/07 09:46:23;;;;;;;3.42;2.40;;;29.90;26.70;;;;;;4363755;32;20150;-71
2021/08/07 09:48:52;;;;;;;2.58;2.12;;;30.40;25.60;;;;;;4362393;32;20150;-71
2021/08/07 09:51:33;;;;;;;3.65;2.30;;;30.20;24.50;;;;;;4363029;32;20077;-72
2021/08/07 09:54:19;;;;;;;3.55;2.60;;;29.20;27.70;;;;;;4362675;32;20073;-72
2021/08/07 09:56:54;;;;;;;3.10;2.47;;;29.80;26.10;;;;;;4375254;32;20092;-71
2021/08/07 09:59:23;;;;;;;3.28;2.40;;;30.20;26.20;;;;;;4351181;32;20183;-72
2021/08/07 10:01:50;;;;;;;4.65;2.80;;;30.40;25.30;;;;;;4362716;32;20155;-72
2021/08/07 10:04:18;;;;;;;3.42;2.45;;;30.40;24.90;;;;;;4362333;32;20153;-71
2021/08/07 10:06:45;;;;;;;3.15;2.45;;;30.40;25.30;;;;;;4350646;32;20528;-70
2021/08/07 10:09:11;;;;;;;2.62;2.40;;;30.30;25.20;;;;;;4376305;32;20516;-71
2021/08/07 10:11:39;;;;;;;2.53;2.30;;;29.90;26.10;;;;;;4362815;32;20080;-71
2021/08/07 10:14:05;;;;;;;2.67;2.33;;;29.90;26.00;;;;;;4362541;32;20073;-71
2021/08/07 10:16:33;;;;;;;3.35;2.78;;;30.40;25.30;;;;;;4374568;32;20524;-72
2021/08/07 10:18:59;;;;;;;3.00;2.50;;;29.90;27.10;;;;;;4350202;32;20088;-72
2021/08/07 10:21:25;;;;;;;4.80;2.55;;;29.60;28.00;;;;;;4363045;32;20097;-72
2021/08/07 10:23:53;;;;;;;2.62;2.40;;;30.20;28.00;;;;;;4374982;32;20090;-71
2021/08/07 10:26:20;;;;;;;4.03;2.70;;;30.30;27.60;;;;;;4362437;32;20066;-72
2021/08/07 10:28:49;;;;;;;3.15;2.58;;;30.20;27.70;;;;;;4375079;32;20100;-70
2021/08/07 10:31:21;;;;;;;4.37;2.50;;;30.20;28.30;;;;;;4362932;32;20075;-71
2021/08/07 10:33:47;;;;;;;4.78;3.37;;;30.70;27.20;;;;;;4363856;32;20074;-71
2021/08/07 10:36:14;;;;;;;3.17;2.45;;;29.90;27.80;;;;;;4350439;32;20085;-71
2021/08/07 10:38:41;;;;;;;2.95;2.60;;;29.90;27.70;;;;;;4350578;32;20081;-72
2021/08/07 10:41:08;;;;;;;3.65;2.70;;;29.90;28.20;;;;;;4363388;32;20094;-72
2021/08/07 10:43:36;;;;;;;4.85;2.80;;;30.10;28.00;;;;;;4366427;32;20067;-71
2021/08/07 10:46:06;;;;;;;3.62;2.62;;;29.60;27.90;;;;;;4366003;32;20505;-71
2021/08/07 10:48:43;;;;;;;5.65;2.58;;;29.90;28.10;;;;;;4378057;32;20165;-72
2021/08/07 10:51:19;;;;;;;4.00;3.00;;;29.90;28.10;;;;;;4340604;32;20097;-71
2021/08/07 10:54:02;;;;;;;3.53;2.40;;;29.90;28.30;;;;;;4381029;32;20085;-71
2021/08/07 10:56:44;;;;;;;4.22;2.62;;;29.90;28.00;;;;;;4372193;32;20097;-70
2021/08/07 10:59:10;;;;;;;3.58;2.28;;;30.00;28.10;;;;;;4357851;32;20152;-71
2021/08/07 11:01:37;;;;;;;3.17;2.60;;;30.30;27.60;;;;;;4381869;32;20069;-72
2021/08/07 11:04:09;;;;;;;3.33;2.50;;;29.60;27.90;;;;;;4378062;32;20494;-72
2021/08/07 11:06:38;;;;;;;4.65;2.53;;;29.70;28.10;;;;;;4379532;32;20121;-72
2021/08/07 11:09:30;;;;;;;3.40;2.80;;;30.10;27.70;;;;;;4377740;32;20090;-71
2021/08/07 11:12:12;;;;;;;2.65;2.40;;;30.30;27.10;;;;;;4377689;32;20173;-72
2021/08/07 11:14:47;;;;;;;2.72;2.50;;;30.50;27.20;;;;;;4379055;32;20058;-73
2021/08/07 11:17:13;;;;;;;3.12;2.60;;;30.30;27.40;;;;;;4377276;32;20083;-73
2021/08/07 11:20:07;;;;;;;4.15;2.58;;;30.40;27.30;;;;;;4378341;32;20085;-72
2021/08/07 11:22:51;;;;;;;3.97;2.78;;;30.70;27.00;;;;;;4353901;32;20100;-71
2021/08/07 11:25:20;;;;;;;3.03;2.62;;;31.30;25.90;;;;;;4377124;32;20090;-71
2021/08/07 11:27:52;;;;;;;3.25;2.53;;;30.80;26.50;;;;;;4376834;32;20084;-71
2021/08/07 11:30:39;;;;;;;3.35;2.50;;;30.90;26.50;;;;;;4379315;32;20073;-71
2021/08/07 11:33:11;;;;;;;3.22;2.50;;;30.70;27.10;;;;;;4365497;32;20086;-71
2021/08/07 11:35:38;;;;;;;4.57;2.80;;;30.50;27.10;;;;;;4377138;32;20073;-71
2021/08/07 11:38:09;;;;;;;3.15;2.55;;;30.40;27.20;;;;;;4377056;32;20070;-71
2021/08/07 11:40:47;;;;;;;3.92;2.53;;;30.60;27.20;;;;;;4378195;32;20536;-71
2021/08/07 11:43:21;;;;;;;2.70;2.50;;;30.50;26.50;;;;;;4376861;32;20084;-71
2021/08/07 11:45:54;;;;;;;4.35;2.50;;;30.60;26.60;;;;;;4364791;32;20080;-72
2021/08/07 11:48:36;;;;;;;3.85;2.90;;;31.20;26.30;;;;;;4378227;32;20166;-70
2021/08/07 11:51:14;;;;;;;3.62;2.62;;;31.30;25.70;;;;;;4366245;32;20077;-70
2021/08/07 11:53:42;;;;;;;3.92;2.85;;;30.80;25.60;;;;;;4376409;32;20507;-73
2021/08/07 11:56:17;;;;;;;4.47;2.72;;;30.80;27.30;;;;;;4351999;32;20437;-70
2021/08/07 11:58:50;;;;;;;3.55;2.78;;;31.10;26.80;;;;;;4352625;32;20495;-72
2021/08/07 12:01:17;;;;;;;6.32;2.70;;;30.20;27.10;;;;;;4376461;32;20543;-72
2021/08/07 12:03:51;;;;;;;2.95;2.53;;;30.70;26.50;;;;;;4364384;32;20104;-72
2021/08/07 12:06:20;;;;;;;6.10;2.80;;;31.30;26.20;;;;;;4364569;32;20081;-72
2021/08/07 12:08:47;;;;;;;3.37;2.50;;;31.40;26.50;;;;;;4364168;32;20152;-70
2021/08/07 12:11:16;;;;;;;3.50;2.58;;;31.20;25.60;;;;;;4364133;32;20078;-72
2021/08/07 12:13:59;;;;;;;2.97;2.78;;;31.00;25.90;;;;;;4364224;32;20508;-71
2021/08/07 12:16:37;;;;;;;3.87;2.65;;;31.60;26.00;;;;;;4364799;32;20081;-71
2021/08/07 12:19:18;;;;;;;2.67;2.28;;;30.90;26.20;;;;;;4363879;32;20170;-72
2021/08/07 12:21:44;;;;;;;3.85;2.60;;;31.00;26.50;;;;;;4353610;32;20085;-72
2021/08/07 12:24:16;;;;;;;4.82;2.80;;;30.90;26.20;;;;;;4364310;32;20105;-72
2021/08/07 12:26:48;;;;;;;2.65;2.40;;;30.80;26.60;;;;;;4365004;32;20094;-72
2021/08/07 12:29:20;;;;;;;4.37;2.70;;;30.80;26.90;;;;;;4351550;32;20082;-71
2021/08/07 12:31:52;;;;;;;3.97;2.90;;;31.00;26.40;;;;;;4364221;32;20070;-71
2021/08/07 12:34:29;;;;;;;3.15;2.67;;;30.90;26.20;;;;;;4351930;32;20078;-69
2021/08/07 12:37:05;;;;;;;4.20;2.72;;;31.10;26.20;;;;;;4376224;32;20078;-71
2021/08/07 12:39:53;;;;;;;3.65;2.87;;;31.10;25.70;;;;;;4376235;32;20070;-71
2021/08/07 12:42:22;;;;;;;4.18;2.78;;;30.80;25.60;;;;;;4363896;32;20074;-72
2021/08/07 12:45:13;;;;;;;4.05;2.55;;;30.60;26.30;;;;;;4351618;32;20089;-72
2021/08/07 12:47:41;;;;;;;2.97;2.67;;;31.20;25.80;;;;;;4376466;32;20102;-71
2021/08/07 12:50:16;;;;;;;4.68;2.90;;;31.20;25.50;;;;;;4351545;32;20168;-71
2021/08/07 12:53:08;;;;;;;3.33;2.80;;;31.00;25.90;;;;;;4350770;32;20587;-71
2021/08/07 12:55:49;;;;;;;3.62;2.70;;;31.00;26.40;;;;;;4360744;32;20089;-72
2021/08/07 12:58:22;;;;;;;3.55;2.80;;;30.60;25.80;;;;;;4363501;32;20081;-72